Overview Statistics Trail Chart Weather Telemetry Raw packets
 

This is the latest recevied weather packets stored in our database for station/object W7BTL. If no packets are shown the sender has not sent any weather packets the latest 10 day(s).

<< 1 2 3 4 5 >>
Time Temp. Humidity Pressure Rain* Wind** Luminosity Snow
1788657243 28.89° C 47% 1011.5 hPa 0 mm - 95 W/m² -
1788656938 28.89° C 45% 1011.4 hPa 0 mm - 117 W/m² -
1788656634 28.89° C 46% 1011.3 hPa 0 mm - 126 W/m² -
1788656330 28.33° C 48% 1011.4 hPa 0 mm - 113 W/m² -
1788656029 28.33° C 46% 1011.3 hPa 0 mm - 130 W/m² -
1788655727 28.89° C 44% 1011.4 hPa 0 mm - 99 W/m² -
1788655427 29.44° C 42% 1011.4 hPa 0 mm - 113 W/m² -
1788655122 29.44° C 43% 1011.4 hPa 0 mm - 156 W/m² -
1788654818 28.89° C 43% 1011.1 hPa 0 mm - 205 W/m² -
1788654513 29.44° C 42% 1011.4 hPa 0 mm - 112 W/m² -
1788654212 30° C 42% 1011.2 hPa 0 mm - 119 W/m² -
1788653908 30° C 42% 1011.2 hPa 0 mm - 128 W/m² -
1788653604 30.56° C 41% 1011.1 hPa 0 mm - 147 W/m² -
1788653299 30.56° C 40% 1011 hPa 0 mm - 146 W/m² -
1788652993 30.56° C 37% 1011.1 hPa 0 mm - 148 W/m² -
1788652688 31.11° C 38% 1011.1 hPa 0 mm - 160 W/m² -
1788652388 31.11° C 36% 1011 hPa 0 mm - 170 W/m² -
1788652084 31.11° C 38% 1011.3 hPa 0 mm - 204 W/m² -
1788651779 31.67° C 37% 1011.1 hPa 0 mm - 209 W/m² -
1788651474 31.67° C 37% 1011 hPa 0 mm - 230 W/m² -
1788651174 32.22° C 37% 1011 hPa 0 mm - 252 W/m² -
1788650873 32.22° C 34% 1011.1 hPa 0 mm - 242 W/m² -
1788650569 33.33° C 35% 1011 hPa 0 mm - 251 W/m² -
1788650265 33.89° C 33% 1010.9 hPa 0 mm - 265 W/m² -
1788649960 34.44° C 31% 1011.1 hPa 0 mm - 252 W/m² -

* Rain latest hour (hover to see other rain measurements)
** Current wind speed in m/s (hover to see current wind gust speed)